ASN logo
Last updated: 8 December 2021
Statuts:
Date:jeudi 8 août 2019
Heure:13:29
Type/Sous-type:Silhouette image of generic A321 model; specific model in this crash may look slightly different
Airbus A321-211 (WL)
Compagnie:Frontier Airlines
Immatriculation: N717FR
Numéro de série: 7536
Année de Fabrication: 2017-01-31 (2 years 6 months)
Moteurs: 2 CFMI CFM56-5B3/3
Equipage:victimes: 0 / à bord:
Passagers:victimes: 0 / à bord:
Total:victimes: 0 / à bord: 232
Dégats de l'appareil: Substantiels
Conséquences: Repaired
Lieu de l'accident:Orlando International Airport, FL (MCO) (   Etats-Unis d'Amérique)
Phase de vol: A l'atterrissage (LDG)
Nature:Transport de Passagers Nat.
Aéroport de départ:Portland International Jetport, ME (PWM/KPWM), Etats-Unis d'Amérique
Aéroport de destination:Orlando International Airport, FL (MCO/KMCO), Etats-Unis d'Amérique
Numéro de vol:F91187
Détails:
Frontier Airlines flight 1187, an Airbus A321-200, suffered a tailstrike on landing at Orlando International Airport, Florida, USA.
The aircraft was cleared to land on runway 18L and touched down hard at 17:29 UTC. The flight crew performed a go around and circled for an approach to runway 17L but this approach was aborted at 17:40. The flight then circled for an approach and landing on runway 35R at 17:53.
It was reported that an airplane that landed on the parallel runway just before the accident aircraft reported windshear.

The aircraft was repaired and resumed service on December 14, 2019.

Accident investigation:
Investigating agency: NTSB
Status: Investigation ongoing
Accident number: DCA19CA193

Sources:
» NTSB
» Flightaware

METAR Weather report:
16:53 UTC / 12:53 local time:
KMCO 081653Z 29007KT 10SM -RA SCT033TCU BKN250 31/24 A3000 RMK AO2 RAB48 SLP156 TCU ALQDS P0000 T03110239

18:19 UTC / 14:19 local time:
KMCO 081819Z 28005KT 10SM TS FEW035CB FEW090 BKN250 31/25 A2999 RMK AO2 LTG DSNT E RAE06 TSB19 OCNL LTGCG SE TS SE MOV E TCU NE-E VCSH SE P0001 T03110250


Photos

Add your photo of this accident or aircraft

Plan
This map shows the airport of departure and the intended destination of the flight. The line is connecting ADS-B datapoints from FlightAware.
La distance entre Portland International Jetport, ME et Orlando International Airport, FL est de 1942 km (1214 miles).
Accident location: Exact; deduced from official accident report.

Les informations ci-dessus ne représentent pas l'opinion de la 'Flight Safety Foundation' ou de 'Aviation Safety Network' sur les causes de l'accident. Ces informations prélimimaires sont basées sur les faits tel qu'ils sont connus à ce jour.
languages: languages

Share